createdAt,value
2022-11-23T00:02:56.474Z,54.29
2022-11-23T00:06:05.526Z,55.86
2022-11-23T00:09:14.580Z,54.73
2022-11-23T00:12:20.536Z,54.70
2022-11-23T00:15:27.277Z,55.93
2022-11-23T00:18:35.877Z,58.56
2022-11-23T00:21:42.847Z,56.99
2022-11-23T00:24:48.781Z,57.52
2022-11-23T00:27:55.540Z,56.82
2022-11-23T00:31:02.117Z,56.52
2022-11-23T00:34:11.446Z,57.73
2022-11-23T00:37:19.409Z,58.69
2022-11-23T00:40:26.165Z,59.02
2022-11-23T00:43:33.154Z,58.48
2022-11-23T00:46:39.873Z,57.48
2022-11-23T00:49:48.402Z,59.23
2022-11-23T00:52:57.664Z,59.22
2022-11-23T00:56:03.868Z,58.57
2022-11-23T00:59:10.721Z,62.24
2022-11-23T01:02:17.473Z,61.12
2022-11-23T01:05:26.772Z,62.11
2022-11-23T01:08:32.698Z,70.04
2022-11-23T01:11:39.394Z,78.19
2022-11-23T01:14:45.375Z,70.81
2022-11-23T01:17:52.099Z,68.95
2022-11-23T01:21:03.741Z,68.13
2022-11-23T01:24:16.062Z,55.11
2022-11-23T01:27:22.130Z,56.43
2022-11-23T01:30:30.678Z,54.48
2022-11-23T01:33:37.378Z,54.10
2022-11-23T01:36:47.679Z,55.37
2022-11-23T01:39:53.695Z,55.02
2022-11-23T01:43:04.010Z,56.87
2022-11-23T01:46:12.213Z,56.78
2022-11-23T01:49:19.712Z,55.56
2022-11-23T01:52:30.224Z,56.71
2022-11-23T01:55:39.822Z,56.82
2022-11-23T01:58:54.967Z,56.89
2022-11-23T02:02:02.214Z,58.94
2022-11-23T02:05:10.826Z,57.67
2022-11-23T02:08:23.051Z,58.75
2022-11-23T02:11:29.116Z,57.60
2022-11-23T02:14:36.401Z,58.06
2022-11-23T02:17:42.543Z,61.12
2022-11-23T02:20:50.188Z,60.08
2022-11-23T02:24:12.943Z,59.11
2022-11-23T02:27:24.559Z,59.14
2022-11-23T02:30:35.006Z,58.82
2022-11-23T02:33:42.074Z,59.69
2022-11-23T02:36:52.177Z,59.81
2022-11-23T02:40:07.630Z,58.59
2022-11-23T02:46:37.892Z,60.47
2022-11-23T02:49:45.958Z,60.34
2022-11-23T02:52:52.634Z,59.33
2022-11-23T02:55:58.485Z,61.65
2022-11-23T02:59:08.166Z,61.37
2022-11-23T03:02:14.369Z,60.00
2022-11-23T03:05:21.467Z,59.53
2022-11-23T03:08:30.898Z,59.90
2022-11-23T03:11:39.602Z,59.33
2022-11-23T03:14:48.204Z,57.76
2022-11-23T03:17:57.076Z,59.37
2022-11-23T03:21:07.146Z,59.27
2022-11-23T03:24:16.500Z,59.95
2022-11-23T03:27:24.322Z,57.90
2022-11-23T03:30:33.977Z,57.09
2022-11-23T03:33:41.886Z,55.17
2022-11-23T03:36:49.131Z,56.42
2022-11-23T03:39:55.209Z,57.17
2022-11-23T03:43:01.988Z,58.09
2022-11-23T03:46:10.734Z,59.42
2022-11-23T03:49:17.590Z,61.24
2022-11-23T03:52:24.107Z,62.41
2022-11-23T03:55:31.166Z,60.94
2022-11-23T03:58:37.882Z,63.61
2022-11-23T04:01:50.814Z,61.88
2022-11-23T04:05:01.506Z,60.28
2022-11-23T04:08:28.550Z,57.13
2022-11-23T04:11:35.845Z,58.96
2022-11-23T04:14:42.960Z,63.64
2022-11-23T04:17:51.741Z,63.46
2022-11-23T04:20:58.747Z,63.00
2022-11-23T04:24:04.965Z,64.43
2022-11-23T04:27:14.536Z,60.55
2022-11-23T04:30:22.278Z,62.77
2022-11-23T04:33:32.020Z,64.31
2022-11-23T04:36:39.032Z,63.93
2022-11-23T04:39:48.234Z,61.06
2022-11-23T04:43:02.109Z,58.87
2022-11-23T04:46:13.757Z,61.29
2022-11-23T04:49:23.149Z,59.86
2022-11-23T04:52:30.180Z,59.94
2022-11-23T04:55:37.117Z,62.12
2022-11-23T04:58:45.011Z,60.79
2022-11-23T05:01:52.422Z,61.45
2022-11-23T05:05:20.962Z,63.85
2022-11-23T05:08:26.954Z,62.37
2022-11-23T05:11:42.163Z,57.97
2022-11-23T05:14:49.531Z,57.69
2022-11-23T05:18:06.574Z,55.19
2022-11-23T05:21:16.987Z,54.24
2022-11-23T05:24:23.979Z,54.53
2022-11-23T05:27:46.005Z,53.53
2022-11-23T05:30:54.093Z,53.22
2022-11-23T05:34:00.135Z,53.69
2022-11-23T05:37:19.995Z,52.70
2022-11-23T05:40:48.128Z,55.28
2022-11-23T05:43:55.600Z,54.86
2022-11-23T05:47:05.786Z,59.02
2022-11-23T05:50:14.377Z,58.80
2022-11-23T05:53:28.284Z,59.38
2022-11-23T05:56:42.351Z,60.21
2022-11-23T06:00:02.157Z,59.43
2022-11-23T06:03:19.329Z,59.34
2022-11-23T06:06:25.775Z,61.29
2022-11-23T06:09:36.422Z,63.28
2022-11-23T06:12:46.780Z,65.52
2022-11-23T06:15:57.320Z,71.97
2022-11-23T06:19:10.780Z,75.80
2022-11-23T06:22:22.559Z,72.74
2022-11-23T06:25:38.953Z,69.80
2022-11-23T06:29:04.332Z,68.88
2022-11-23T06:32:10.342Z,66.48
2022-11-23T06:35:17.877Z,67.22
2022-11-23T06:38:27.154Z,69.44
2022-11-23T06:41:51.939Z,74.80
2022-11-23T06:44:57.963Z,64.69
2022-11-23T06:48:04.898Z,61.79
2022-11-23T06:51:14.306Z,54.90
2022-11-23T06:54:24.607Z,53.01
2022-11-23T06:57:36.031Z,52.45
2022-11-23T07:00:43.382Z,53.07
2022-11-23T07:03:50.365Z,56.71
2022-11-23T07:07:06.566Z,54.93
2022-11-23T07:10:21.093Z,59.81
2022-11-23T07:13:37.807Z,61.41
2022-11-23T07:16:43.946Z,66.00
2022-11-23T07:20:04.880Z,61.79
2022-11-23T07:23:25.955Z,58.50
2022-11-23T07:26:48.974Z,59.70
2022-11-23T07:30:14.698Z,71.67
2022-11-23T07:33:35.587Z,87.65
2022-11-23T07:37:01.840Z,90.47
2022-11-23T07:40:25.107Z,71.18
2022-11-23T07:43:45.930Z,62.84
2022-11-23T07:47:10.380Z,64.40
2022-11-23T07:50:32.492Z,74.81
2022-11-23T07:53:39.597Z,97.52
2022-11-23T07:56:45.547Z,85.01
2022-11-23T07:59:52.263Z,75.17
2022-11-23T08:06:28.337Z,72.01
2022-11-23T08:09:34.344Z,53.97
2022-11-23T08:12:41.173Z,51.54
2022-11-23T08:15:53.277Z,61.19
2022-11-23T08:19:03.597Z,61.84
2022-11-23T08:22:12.370Z,70.70
2022-11-23T08:25:22.399Z,71.13
2022-11-23T08:28:28.474Z,73.44
2022-11-23T08:31:35.322Z,65.25
2022-11-23T08:34:46.903Z,56.46
2022-11-23T08:37:53.824Z,57.06
2022-11-23T08:41:02.520Z,52.32
2022-11-23T08:44:12.431Z,50.93
2022-11-23T08:47:19.837Z,49.09
2022-11-23T08:50:29.485Z,50.60
2022-11-23T08:53:36.778Z,51.00
2022-11-23T08:56:43.531Z,54.71
2022-11-23T08:59:49.486Z,58.55
2022-11-23T09:02:58.465Z,59.27
2022-11-23T09:06:07.644Z,59.43
2022-11-23T09:09:14.706Z,58.08
2022-11-23T09:12:20.921Z,55.76
2022-11-23T09:15:27.696Z,58.92
2022-11-23T09:18:35.678Z,57.08
2022-11-23T09:21:45.238Z,51.23
2022-11-23T09:24:51.103Z,51.41
2022-11-23T09:28:02.160Z,53.02
2022-11-23T09:31:08.995Z,54.18
2022-11-23T09:34:16.516Z,49.34
2022-11-23T09:37:26.149Z,49.84
2022-11-23T09:40:39.432Z,50.95
2022-11-23T09:44:05.065Z,49.44
2022-11-23T09:47:46.702Z,49.20
2022-11-23T09:50:59.624Z,51.71
2022-11-23T09:54:27.801Z,55.11
2022-11-23T09:57:39.229Z,52.10
2022-11-23T10:00:53.656Z,56.75
2022-11-23T10:04:01.504Z,52.55
2022-11-23T10:07:35.735Z,50.65
2022-11-23T10:10:55.808Z,52.95
2022-11-23T10:14:29.900Z,51.69
2022-11-23T10:18:03.046Z,59.26
2022-11-23T10:21:30.172Z,61.40
2022-11-23T10:24:45.527Z,62.40
2022-11-23T10:28:03.337Z,65.34
2022-11-23T10:31:19.635Z,54.77
2022-11-23T10:34:49.672Z,49.26
2022-11-23T10:38:03.759Z,62.83
2022-11-23T10:41:16.021Z,65.87
2022-11-23T10:44:37.129Z,65.89
2022-11-23T10:47:52.283Z,71.43
2022-11-23T10:51:22.686Z,59.85
2022-11-23T10:54:35.317Z,63.12
2022-11-23T10:57:48.324Z,63.57
2022-11-23T11:01:03.876Z,49.91
2022-11-23T11:04:27.779Z,50.25
2022-11-23T11:07:35.194Z,42.81
2022-11-23T11:10:50.310Z,47.74
2022-11-23T11:14:08.670Z,46.57
2022-11-23T11:17:30.819Z,40.77
2022-11-23T11:20:39.547Z,41.70
2022-11-23T11:23:49.733Z,44.50
2022-11-23T11:27:04.538Z,43.71
2022-11-23T11:30:25.597Z,48.19
2022-11-23T11:33:49.715Z,44.67
2022-11-23T11:37:09.135Z,43.64
2022-11-23T11:40:29.079Z,42.96
2022-11-23T11:43:44.015Z,35.08
2022-11-23T11:47:00.971Z,36.60
2022-11-23T11:50:31.389Z,35.79
2022-11-23T11:53:52.485Z,37.60
2022-11-23T11:57:07.926Z,35.32
2022-11-23T12:00:20.824Z,37.79
2022-11-23T12:03:44.487Z,36.03
2022-11-23T12:07:07.338Z,36.24
2022-11-23T12:10:21.888Z,37.71
2022-11-23T12:13:35.110Z,37.81
2022-11-23T12:20:45.393Z,43.16
2022-11-23T12:24:13.885Z,42.66
2022-11-23T12:27:48.259Z,41.12
2022-11-23T12:31:13.565Z,37.76
2022-11-23T12:34:51.017Z,36.58
2022-11-23T12:38:20.743Z,37.52
2022-11-23T12:41:45.276Z,48.25
2022-11-23T12:45:20.442Z,44.73
2022-11-23T12:48:49.041Z,43.74
2022-11-23T12:52:13.452Z,40.03
2022-11-23T12:55:35.995Z,38.75
2022-11-23T12:58:51.042Z,39.31
2022-11-23T13:02:06.924Z,38.04
2022-11-23T13:06:15.088Z,36.84
2022-11-23T13:09:50.539Z,37.98
2022-11-23T13:13:40.700Z,39.40
2022-11-23T13:17:24.358Z,37.00
2022-11-23T13:21:07.294Z,34.82
2022-11-23T13:24:35.278Z,35.18
2022-11-23T13:27:57.464Z,37.91
2022-11-23T13:31:25.646Z,40.33
2022-11-23T13:34:51.326Z,43.33
2022-11-23T13:38:27.387Z,43.92
2022-11-23T13:42:03.673Z,38.51
2022-11-23T13:45:28.863Z,39.35
2022-11-23T13:49:00.050Z,40.97
2022-11-23T13:52:36.574Z,43.85
2022-11-23T13:55:43.604Z,39.37
2022-11-23T13:58:57.573Z,38.89
2022-11-23T14:02:31.218Z,36.69
2022-11-23T14:06:01.963Z,38.61
2022-11-23T14:09:25.211Z,39.24
2022-11-23T14:12:46.028Z,37.85
2022-11-23T14:16:03.100Z,37.57
2022-11-23T14:19:31.435Z,36.31
2022-11-23T14:23:03.364Z,38.18
2022-11-23T14:26:36.647Z,41.06
2022-11-23T14:30:22.838Z,45.64
2022-11-23T14:33:45.859Z,57.36
2022-11-23T14:37:05.860Z,42.27
2022-11-23T14:40:33.837Z,38.46
2022-11-23T14:43:45.824Z,38.16
2022-11-23T14:47:06.647Z,43.13
2022-11-23T14:50:27.735Z,45.25
2022-11-23T14:53:46.722Z,46.67
2022-11-23T14:57:00.857Z,40.62
2022-11-23T15:00:28.950Z,44.16
2022-11-23T15:03:50.308Z,46.16
2022-11-23T15:07:07.008Z,46.62
2022-11-23T15:10:33.912Z,41.11
2022-11-23T15:13:48.626Z,44.97
2022-11-23T15:16:57.285Z,43.54
2022-11-23T15:20:07.362Z,49.67
2022-11-23T15:23:25.242Z,48.81
2022-11-23T15:26:48.037Z,48.55
2022-11-23T15:29:58.584Z,50.05
2022-11-23T15:33:14.455Z,61.14
2022-11-23T15:36:28.228Z,81.60
2022-11-23T15:39:35.723Z,64.25
2022-11-23T15:42:42.736Z,51.90
2022-11-23T15:46:09.087Z,45.29
2022-11-23T15:49:20.856Z,42.33
2022-11-23T15:52:30.259Z,43.55
2022-11-23T15:55:37.769Z,43.15
2022-11-23T15:58:54.454Z,46.97
2022-11-23T16:02:03.353Z,46.90
2022-11-23T16:05:22.510Z,42.60
2022-11-23T16:08:28.851Z,44.28
2022-11-23T16:11:39.023Z,37.92
2022-11-23T16:14:45.061Z,56.92
2022-11-23T16:17:52.177Z,65.98
2022-11-23T16:21:05.732Z,59.60
2022-11-23T16:24:26.086Z,39.63
2022-11-23T16:27:32.218Z,41.15
2022-11-23T16:30:42.853Z,44.51
2022-11-23T16:33:48.855Z,46.05
2022-11-23T16:36:59.488Z,43.88
2022-11-23T16:40:05.522Z,47.00
2022-11-23T16:43:15.038Z,51.84
2022-11-23T16:46:21.003Z,57.06
2022-11-23T16:49:27.959Z,60.04
2022-11-23T16:52:39.550Z,61.53
2022-11-23T16:55:47.276Z,73.29
2022-11-23T16:58:55.492Z,71.71
2022-11-23T17:02:02.474Z,74.42
2022-11-23T17:05:17.586Z,68.68
2022-11-23T17:08:27.047Z,73.80
2022-11-23T17:11:33.279Z,65.37
2022-11-23T17:14:42.879Z,60.90
2022-11-23T17:17:51.797Z,57.16
2022-11-23T17:20:59.235Z,46.13
2022-11-23T17:24:09.003Z,100.90
2022-11-23T17:27:21.670Z,74.54
2022-11-23T17:30:27.877Z,58.31
2022-11-23T17:33:34.784Z,50.27
2022-11-23T17:36:42.768Z,50.28
2022-11-23T17:39:53.494Z,41.47
2022-11-23T17:43:00.509Z,39.50
2022-11-23T17:46:08.016Z,39.19
2022-11-23T17:49:18.361Z,38.08
2022-11-23T17:52:27.453Z,37.93
2022-11-23T17:55:36.438Z,38.44
2022-11-23T17:58:43.293Z,41.08
2022-11-23T18:01:49.420Z,43.59
2022-11-23T18:04:56.417Z,46.09
2022-11-23T18:08:02.466Z,45.12
2022-11-23T18:11:12.500Z,46.48
2022-11-23T18:14:19.484Z,54.57
2022-11-23T18:17:26.519Z,45.95
2022-11-23T18:20:32.604Z,55.32
2022-11-23T18:23:40.200Z,62.43
2022-11-23T18:26:49.182Z,54.63
2022-11-23T18:29:56.187Z,51.25
2022-11-23T18:33:02.377Z,48.48
2022-11-23T18:36:13.059Z,47.33
2022-11-23T18:39:19.096Z,52.97
2022-11-23T18:42:28.633Z,50.38
2022-11-23T18:46:10.464Z,41.85
2022-11-23T18:49:17.353Z,40.82
2022-11-23T18:52:23.331Z,42.69
2022-11-23T18:55:30.459Z,47.38
2022-11-23T18:58:37.144Z,47.20
2022-11-23T19:01:46.566Z,46.48
2022-11-23T19:04:52.609Z,45.99
2022-11-23T19:08:05.777Z,47.20
2022-11-23T19:11:17.736Z,43.57
2022-11-23T19:14:25.266Z,42.00
2022-11-23T19:17:34.378Z,42.09
2022-11-23T19:20:42.892Z,44.29
2022-11-23T19:23:54.079Z,46.83
2022-11-23T19:27:01.006Z,45.06
2022-11-23T19:30:09.622Z,41.87
2022-11-23T19:33:20.049Z,39.52
2022-11-23T19:36:28.763Z,43.43
2022-11-23T19:39:36.398Z,47.61
2022-11-23T19:42:42.882Z,42.38
2022-11-23T19:45:57.811Z,41.25
2022-11-23T19:49:08.608Z,41.53
2022-11-23T19:52:15.715Z,46.45
2022-11-23T19:55:22.113Z,47.45
2022-11-23T19:58:31.271Z,46.71
2022-11-23T20:01:37.950Z,48.26
2022-11-23T20:04:47.574Z,46.13
2022-11-23T20:07:54.451Z,45.67
2022-11-23T20:11:01.426Z,47.23
2022-11-23T20:14:08.050Z,46.18
2022-11-23T20:17:15.948Z,45.18
2022-11-23T20:20:24.605Z,48.28
2022-11-23T20:23:32.524Z,47.30
2022-11-23T20:26:39.342Z,50.50
2022-11-23T20:29:46.962Z,52.67
2022-11-23T20:32:54.078Z,54.56
2022-11-23T20:36:17.115Z,55.12
2022-11-23T20:39:23.676Z,54.08
2022-11-23T20:42:32.043Z,56.70
2022-11-23T20:45:38.152Z,59.65
2022-11-23T20:48:48.651Z,64.43
2022-11-23T20:51:57.365Z,59.49
2022-11-23T20:55:04.398Z,50.11
2022-11-23T20:58:10.379Z,60.40
2022-11-23T21:01:19.939Z,58.66
2022-11-23T21:04:26.300Z,58.44
2022-11-23T21:07:35.882Z,58.76
2022-11-23T21:10:54.339Z,52.36
2022-11-23T21:14:16.932Z,55.37
2022-11-23T21:17:24.228Z,53.79
2022-11-23T21:20:36.281Z,49.56
2022-11-23T21:23:49.503Z,43.85
2022-11-23T21:26:59.343Z,44.86
2022-11-23T21:30:05.852Z,43.02
2022-11-23T21:33:12.716Z,43.83
2022-11-23T21:36:18.994Z,43.80
2022-11-23T21:39:30.243Z,42.75
2022-11-23T21:42:37.444Z,42.82
2022-11-23T21:45:44.887Z,40.09
2022-11-23T21:48:50.908Z,40.29
2022-11-23T21:51:57.804Z,37.87
2022-11-23T21:55:06.585Z,36.40
2022-11-23T21:58:13.453Z,46.37
2022-11-23T22:01:23.154Z,42.90
2022-11-23T22:04:30.204Z,38.99
2022-11-23T22:07:36.914Z,37.73
2022-11-23T22:10:46.401Z,36.93
2022-11-23T22:13:58.134Z,36.81
2022-11-23T22:17:06.441Z,37.95
2022-11-23T22:20:14.648Z,42.08
2022-11-23T22:23:21.478Z,41.98
2022-11-23T22:26:30.980Z,44.41
2022-11-23T22:29:37.899Z,42.26
2022-11-23T22:32:46.279Z,39.58
2022-11-23T22:35:53.413Z,44.92
2022-11-23T22:39:02.330Z,45.38
2022-11-23T22:42:11.993Z,37.43
2022-11-23T22:45:18.254Z,36.82
2022-11-23T22:48:25.075Z,42.44
2022-11-23T22:51:33.065Z,42.70
2022-11-23T22:54:40.004Z,42.89
2022-11-23T22:57:48.584Z,44.48
2022-11-23T23:00:56.299Z,44.62
2022-11-23T23:04:04.601Z,40.22
2022-11-23T23:07:11.509Z,41.76
2022-11-23T23:10:17.667Z,46.74
2022-11-23T23:13:27.207Z,49.33
2022-11-23T23:16:33.686Z,42.50
2022-11-23T23:19:40.656Z,44.09
2022-11-23T23:22:47.273Z,37.65
2022-11-23T23:25:57.233Z,37.52
2022-11-23T23:29:05.840Z,38.19
2022-11-23T23:32:13.745Z,39.52
2022-11-23T23:35:19.970Z,39.29
2022-11-23T23:38:30.140Z,39.27
2022-11-23T23:41:36.453Z,39.74
2022-11-23T23:44:45.862Z,39.48
2022-11-23T23:47:51.780Z,41.08
2022-11-23T23:50:59.125Z,42.50
2022-11-23T23:54:05.132Z,39.40
2022-11-23T23:57:12.706Z,41.25
